createdAt,value
2018-12-09T00:01:48.457Z,76.33
2018-12-09T00:04:14.610Z,82.33
2018-12-09T00:06:40.828Z,82.57
2018-12-09T00:09:07.155Z,77.07
2018-12-09T00:11:33.433Z,100.17
2018-12-09T00:13:59.622Z,85.37
2018-12-09T00:16:25.773Z,71.60
2018-12-09T00:18:51.925Z,77.80
2018-12-09T00:21:18.105Z,80.00
2018-12-09T00:23:44.272Z,71.80
2018-12-09T00:26:10.432Z,70.90
2018-12-09T00:28:36.632Z,67.17
2018-12-09T00:31:02.810Z,65.20
2018-12-09T00:33:28.949Z,67.50
2018-12-09T00:35:55.141Z,65.70
2018-12-09T00:38:21.285Z,68.47
2018-12-09T00:40:47.568Z,69.43
2018-12-09T00:43:13.749Z,65.97
2018-12-09T00:45:39.911Z,68.17
2018-12-09T00:48:06.088Z,72.70
2018-12-09T00:50:32.281Z,70.93
2018-12-09T00:52:58.425Z,69.70
2018-12-09T00:55:24.598Z,71.03
2018-12-09T00:57:51.332Z,71.63
2018-12-09T01:00:17.505Z,65.07
2018-12-09T01:02:43.669Z,63.40
2018-12-09T01:05:09.876Z,63.20
2018-12-09T01:07:36.025Z,67.27
2018-12-09T01:10:03.670Z,66.73
2018-12-09T01:12:29.843Z,65.00
2018-12-09T01:14:56.000Z,64.13
2018-12-09T01:17:22.150Z,57.50
2018-12-09T01:19:48.350Z,59.23
2018-12-09T01:22:14.499Z,54.83
2018-12-09T01:24:40.648Z,51.33
2018-12-09T01:27:06.839Z,54.07
2018-12-09T01:29:32.978Z,47.70
2018-12-09T01:31:59.559Z,57.40
2018-12-09T01:34:25.749Z,58.73
2018-12-09T01:36:51.900Z,58.17
2018-12-09T01:39:19.545Z,42.40
2018-12-09T01:41:45.793Z,44.67
2018-12-09T01:44:11.953Z,30.60
2018-12-09T01:46:38.098Z,27.93
2018-12-09T01:49:04.297Z,28.73
2018-12-09T01:51:30.465Z,30.40
2018-12-09T01:54:05.648Z,33.53
2018-12-09T01:56:32.234Z,37.70
2018-12-09T01:58:58.394Z,42.13
2018-12-09T02:01:24.598Z,47.47
2018-12-09T02:03:50.893Z,55.50
2018-12-09T02:06:17.040Z,55.47
2018-12-09T02:08:43.670Z,52.47
2018-12-09T02:11:09.813Z,48.03
2018-12-09T02:13:35.945Z,46.50
2018-12-09T02:16:02.112Z,43.17
2018-12-09T02:18:28.290Z,58.70
2018-12-09T02:20:54.458Z,59.03
2018-12-09T02:23:20.626Z,56.67
2018-12-09T02:25:46.801Z,63.03
2018-12-09T02:28:12.953Z,63.57
2018-12-09T02:30:39.140Z,56.33
2018-12-09T02:33:05.310Z,37.33
2018-12-09T02:35:35.529Z,39.17
2018-12-09T02:38:01.712Z,55.50
2018-12-09T02:40:27.882Z,59.53
2018-12-09T02:42:54.034Z,63.27
2018-12-09T02:45:20.215Z,59.47
2018-12-09T02:47:46.372Z,55.47
2018-12-09T02:50:12.545Z,49.83
2018-12-09T02:52:38.789Z,47.43
2018-12-09T02:55:05.070Z,48.33
2018-12-09T02:57:31.231Z,47.23
2018-12-09T02:59:58.109Z,49.57
2018-12-09T03:02:24.420Z,51.07
2018-12-09T03:04:50.598Z,49.70
2018-12-09T03:07:16.785Z,46.40
2018-12-09T03:09:42.940Z,45.70
2018-12-09T03:12:09.657Z,46.70
2018-12-09T03:14:35.847Z,46.20
2018-12-09T03:17:01.988Z,45.27
2018-12-09T03:22:04.449Z,40.37
2018-12-09T03:24:30.598Z,40.67
2018-12-09T03:26:56.782Z,64.33
2018-12-09T03:29:22.959Z,113.87
2018-12-09T03:31:49.117Z,53.17
2018-12-09T03:34:15.278Z,53.50
2018-12-09T03:36:41.461Z,49.60
2018-12-09T03:39:07.621Z,57.13
2018-12-09T03:41:33.783Z,54.70
2018-12-09T03:43:59.954Z,58.17
2018-12-09T03:46:26.131Z,59.03
2018-12-09T03:48:52.309Z,59.13
2018-12-09T03:51:18.687Z,53.00
2018-12-09T03:53:44.850Z,53.27
2018-12-09T03:56:11.013Z,51.77
2018-12-09T03:58:39.274Z,60.53
2018-12-09T04:01:05.431Z,53.60
2018-12-09T04:03:31.596Z,52.80
2018-12-09T04:05:57.805Z,48.47
2018-12-09T04:08:23.946Z,47.03
2018-12-09T04:10:50.084Z,46.63
2018-12-09T04:13:16.273Z,43.40
2018-12-09T04:15:42.408Z,41.90
2018-12-09T04:18:09.112Z,37.43
2018-12-09T04:20:35.302Z,42.33
2018-12-09T04:23:01.451Z,38.70
2018-12-09T04:27:59.505Z,45.13
2018-12-09T04:30:26.082Z,39.23
2018-12-09T04:32:52.223Z,38.30
2018-12-09T04:35:18.413Z,35.17
2018-12-09T04:37:44.577Z,44.50
2018-12-09T04:40:10.728Z,42.07
2018-12-09T04:42:36.919Z,36.87
2018-12-09T04:45:03.345Z,35.83
2018-12-09T04:47:29.503Z,38.43
2018-12-09T04:49:55.685Z,47.97
2018-12-09T04:52:21.938Z,40.63
2018-12-09T04:54:48.095Z,75.37
2018-12-09T04:57:14.610Z,51.20
2018-12-09T04:59:44.826Z,46.13
2018-12-09T05:02:11.001Z,44.50
2018-12-09T05:04:37.189Z,42.63
2018-12-09T05:07:03.332Z,51.47
2018-12-09T05:09:29.480Z,52.07
2018-12-09T05:11:55.657Z,55.50
2018-12-09T05:14:21.795Z,57.10
2018-12-09T05:16:47.968Z,60.27
2018-12-09T05:19:14.138Z,57.30
2018-12-09T05:21:40.296Z,55.27
2018-12-09T05:24:06.966Z,52.13
2018-12-09T05:26:33.153Z,55.57
2018-12-09T05:28:59.333Z,53.77
2018-12-09T05:31:25.489Z,53.63
2018-12-09T05:33:51.665Z,53.60
2018-12-09T05:36:17.932Z,51.17
2018-12-09T05:38:44.097Z,53.37
2018-12-09T05:41:10.274Z,53.17
2018-12-09T05:43:36.449Z,53.47
2018-12-09T05:46:02.641Z,54.80
2018-12-09T05:48:28.943Z,55.87
2018-12-09T05:50:55.131Z,53.17
2018-12-09T05:53:21.294Z,58.00
2018-12-09T05:55:47.485Z,57.23
2018-12-09T05:58:13.649Z,65.13
2018-12-09T06:00:39.812Z,56.07
2018-12-09T06:03:06.021Z,56.53
2018-12-09T06:05:32.516Z,57.13
2018-12-09T06:07:58.673Z,55.00
2018-12-09T06:10:24.844Z,58.20
2018-12-09T06:12:51.008Z,108.30
2018-12-09T06:15:17.188Z,97.27
2018-12-09T06:17:43.386Z,101.70
2018-12-09T06:20:10.078Z,92.47
2018-12-09T06:22:36.240Z,94.23
2018-12-09T06:25:02.453Z,98.03
2018-12-09T06:27:28.636Z,99.13
2018-12-09T06:29:54.805Z,98.93
2018-12-09T06:32:21.067Z,94.63
2018-12-09T06:34:47.221Z,113.67
2018-12-09T06:37:13.372Z,115.43
2018-12-09T06:39:39.565Z,94.60
2018-12-09T06:42:05.978Z,92.03
2018-12-09T06:44:32.231Z,88.77
2018-12-09T06:46:58.449Z,84.40
2018-12-09T06:49:24.610Z,86.13
2018-12-09T06:51:50.801Z,116.30
2018-12-09T06:54:17.076Z,89.00
2018-12-09T06:56:43.241Z,86.70
2018-12-09T06:59:09.381Z,103.83
2018-12-09T07:01:35.583Z,140.23
2018-12-09T07:04:01.758Z,148.00
2018-12-09T07:06:27.946Z,125.47
2018-12-09T07:08:54.128Z,126.13
2018-12-09T07:11:20.294Z,122.50
2018-12-09T07:13:46.458Z,113.17
2018-12-09T07:16:12.666Z,112.30
2018-12-09T07:18:38.805Z,95.43
2018-12-09T07:21:05.008Z,79.90
2018-12-09T07:23:31.194Z,84.57
2018-12-09T07:25:57.391Z,90.10
2018-12-09T07:28:23.564Z,93.07
2018-12-09T07:30:49.869Z,88.37
2018-12-09T07:33:16.026Z,90.13
2018-12-09T07:35:42.177Z,88.43
2018-12-09T07:38:08.469Z,85.27
2018-12-09T07:40:34.629Z,81.37
2018-12-09T07:43:00.789Z,89.70
2018-12-09T07:45:27.024Z,94.10
2018-12-09T07:47:53.208Z,92.70
2018-12-09T07:50:19.369Z,138.47
2018-12-09T07:52:46.414Z,140.57
2018-12-09T07:55:12.865Z,128.20
2018-12-09T07:57:39.025Z,109.87
2018-12-09T08:00:07.490Z,101.40
2018-12-09T08:02:33.662Z,108.00
2018-12-09T08:04:59.841Z,96.73
2018-12-09T08:07:26.046Z,94.77
2018-12-09T08:09:52.229Z,94.97
2018-12-09T08:12:18.397Z,121.00
2018-12-09T08:14:44.579Z,91.20
2018-12-09T08:17:10.739Z,97.17
2018-12-09T08:19:36.948Z,106.10
2018-12-09T08:22:03.129Z,104.90
2018-12-09T08:24:29.289Z,112.83
2018-12-09T08:26:55.569Z,101.63
2018-12-09T08:29:22.553Z,96.10
2018-12-09T08:31:48.744Z,84.77
2018-12-09T08:34:14.906Z,97.40
2018-12-09T08:36:41.382Z,62.93
2018-12-09T08:39:07.517Z,52.70
2018-12-09T08:41:33.669Z,35.80
2018-12-09T08:43:59.845Z,53.37
2018-12-09T08:46:26.002Z,43.03
2018-12-09T08:48:52.128Z,44.73
2018-12-09T08:51:18.285Z,45.17
2018-12-09T08:53:44.429Z,58.93
2018-12-09T08:56:10.729Z,32.63
2018-12-09T08:58:36.921Z,63.20
2018-12-09T09:01:03.113Z,43.87
2018-12-09T09:03:29.257Z,50.13
2018-12-09T09:05:55.424Z,45.00
2018-12-09T09:08:21.558Z,44.07
2018-12-09T09:10:47.717Z,48.97
2018-12-09T09:13:13.900Z,27.13
2018-12-09T09:15:40.071Z,65.27
2018-12-09T09:18:06.213Z,50.60
2018-12-09T09:20:32.421Z,48.40
2018-12-09T09:22:58.558Z,52.50
2018-12-09T09:25:24.730Z,41.07
2018-12-09T09:27:50.922Z,27.90
2018-12-09T09:30:17.057Z,26.97
2018-12-09T09:32:43.332Z,21.90
2018-12-09T09:35:09.518Z,11.60
2018-12-09T09:37:35.672Z,11.40
2018-12-09T09:40:02.377Z,13.90
2018-12-09T09:42:28.567Z,12.97
2018-12-09T09:44:54.705Z,11.60
2018-12-09T09:47:20.850Z,10.63
2018-12-09T09:49:47.030Z,12.23
2018-12-09T09:52:13.201Z,72.10
2018-12-09T09:54:39.358Z,23.13
2018-12-09T09:57:05.561Z,23.67
2018-12-09T09:59:31.710Z,37.50
2018-12-09T10:01:57.865Z,72.23
2018-12-09T10:04:24.071Z,37.40
2018-12-09T10:06:50.205Z,26.13
2018-12-09T10:09:16.362Z,43.60
2018-12-09T10:11:42.532Z,36.27
2018-12-09T10:14:08.680Z,27.63
2018-12-09T10:16:34.861Z,24.27
2018-12-09T10:19:01.029Z,17.67
2018-12-09T10:21:27.215Z,21.63
2018-12-09T10:23:53.361Z,20.63
2018-12-09T10:26:19.551Z,26.37
2018-12-09T10:28:45.841Z,30.23
2018-12-09T10:31:12.006Z,22.17
2018-12-09T10:33:38.213Z,37.10
2018-12-09T10:36:04.384Z,38.67
2018-12-09T10:38:30.553Z,56.17
2018-12-09T10:40:56.722Z,28.60
2018-12-09T10:43:22.877Z,33.97
2018-12-09T10:45:49.055Z,26.47
2018-12-09T10:48:15.222Z,32.47
2018-12-09T10:50:41.384Z,56.67
2018-12-09T10:53:07.517Z,31.10
2018-12-09T10:55:33.689Z,55.97
2018-12-09T10:57:59.921Z,38.30
2018-12-09T11:00:32.041Z,39.33
2018-12-09T11:02:58.215Z,43.03
2018-12-09T11:05:24.374Z,44.07
2018-12-09T11:07:50.533Z,42.90
2018-12-09T11:10:16.703Z,45.07
2018-12-09T11:12:42.837Z,39.97
2018-12-09T11:15:09.005Z,92.60
2018-12-09T11:17:35.206Z,73.73
2018-12-09T11:20:01.621Z,143.47
2018-12-09T11:22:27.789Z,147.23
2018-12-09T11:24:53.965Z,120.07
2018-12-09T11:27:20.118Z,119.30
2018-12-09T11:29:46.279Z,131.03
2018-12-09T11:32:12.758Z,123.13
2018-12-09T11:34:38.930Z,111.20
2018-12-09T11:37:05.085Z,106.23
2018-12-09T11:39:31.267Z,109.07
2018-12-09T11:44:40.111Z,133.27
2018-12-09T11:47:06.262Z,150.00
2018-12-09T11:49:32.418Z,207.80
2018-12-09T11:51:58.620Z,226.60
2018-12-09T11:54:24.828Z,271.53
2018-12-09T11:56:50.962Z,241.93
2018-12-09T11:59:17.296Z,313.73
2018-12-09T12:01:43.449Z,305.77
2018-12-09T12:04:09.601Z,228.67
2018-12-09T12:06:35.793Z,212.80
2018-12-09T12:09:02.018Z,241.07
2018-12-09T12:11:28.201Z,281.27
2018-12-09T12:13:54.362Z,259.50
2018-12-09T12:16:21.117Z,201.80
2018-12-09T12:18:47.246Z,172.73
2018-12-09T12:21:13.429Z,163.20
2018-12-09T12:23:39.570Z,143.87
2018-12-09T12:26:05.761Z,137.30
2018-12-09T12:28:32.073Z,121.40
2018-12-09T12:30:58.217Z,122.33
2018-12-09T12:33:24.378Z,113.10
2018-12-09T12:35:50.608Z,121.57
2018-12-09T12:38:16.782Z,128.97
2018-12-09T12:40:42.966Z,135.70
2018-12-09T12:43:09.173Z,121.77
2018-12-09T12:45:35.467Z,90.23
2018-12-09T12:48:01.639Z,104.43
2018-12-09T12:50:27.862Z,104.97
2018-12-09T12:52:54.027Z,120.37
2018-12-09T12:55:20.192Z,73.97
2018-12-09T12:57:46.757Z,104.23
2018-12-09T13:00:14.224Z,96.03
2018-12-09T13:02:40.375Z,104.80
2018-12-09T13:05:06.812Z,91.17
2018-12-09T13:07:32.962Z,78.50
2018-12-09T13:09:59.089Z,77.67
2018-12-09T13:12:25.259Z,106.80
2018-12-09T13:14:51.406Z,114.87
2018-12-09T13:17:20.456Z,153.33
2018-12-09T13:19:46.667Z,136.23
2018-12-09T13:22:12.873Z,138.63
2018-12-09T13:24:39.910Z,152.27
2018-12-09T13:27:06.114Z,134.73
2018-12-09T13:29:32.274Z,135.03
2018-12-09T13:31:58.421Z,130.10
2018-12-09T13:34:24.734Z,117.43
2018-12-09T13:36:50.880Z,121.33
2018-12-09T13:39:17.050Z,100.57
2018-12-09T13:41:43.222Z,94.93
2018-12-09T13:44:09.386Z,98.93
2018-12-09T13:46:35.565Z,80.47
2018-12-09T13:49:01.749Z,80.83
2018-12-09T13:51:27.917Z,76.90
2018-12-09T13:53:54.077Z,60.67
2018-12-09T13:56:20.274Z,70.07
2018-12-09T13:58:46.421Z,70.40
2018-12-09T14:01:12.657Z,73.27
2018-12-09T14:03:38.856Z,82.50
2018-12-09T14:06:05.008Z,89.37
2018-12-09T14:08:31.153Z,98.47
2018-12-09T14:10:57.354Z,84.37
2018-12-09T14:13:23.497Z,120.23
2018-12-09T14:15:49.639Z,107.47
2018-12-09T14:18:15.826Z,109.93
2018-12-09T14:20:42.012Z,100.73
2018-12-09T14:23:08.205Z,147.13
2018-12-09T14:25:34.364Z,147.53
2018-12-09T14:28:00.514Z,109.90
2018-12-09T14:30:26.699Z,116.57
2018-12-09T14:32:52.909Z,101.23
2018-12-09T14:35:19.061Z,100.13
2018-12-09T14:37:45.225Z,93.20
2018-12-09T14:40:11.557Z,99.80
2018-12-09T14:42:37.723Z,90.47
2018-12-09T14:45:05.542Z,91.67
2018-12-09T14:47:31.745Z,97.70
2018-12-09T14:49:57.913Z,108.93
2018-12-09T14:52:24.066Z,100.10
2018-12-09T14:54:50.251Z,102.10
2018-12-09T14:57:16.719Z,104.80
2018-12-09T14:59:42.858Z,128.70
2018-12-09T15:02:09.090Z,126.97
2018-12-09T15:04:35.228Z,107.53
2018-12-09T15:07:01.394Z,94.33
2018-12-09T15:09:27.614Z,146.30
2018-12-09T15:11:53.777Z,146.37
2018-12-09T15:14:19.928Z,138.37
2018-12-09T15:16:46.154Z,134.73
2018-12-09T15:19:12.311Z,148.93
2018-12-09T15:21:38.466Z,139.63
2018-12-09T15:24:04.657Z,120.43
2018-12-09T15:26:30.806Z,109.27
2018-12-09T15:28:56.971Z,96.03
2018-12-09T15:31:23.149Z,78.17
2018-12-09T15:33:49.288Z,109.10
2018-12-09T15:36:15.439Z,125.33
2018-12-09T15:38:41.642Z,110.93
2018-12-09T15:41:07.793Z,77.63
2018-12-09T15:43:33.961Z,76.90
2018-12-09T15:46:00.128Z,97.23
2018-12-09T15:48:26.281Z,119.83
2018-12-09T15:50:52.665Z,123.97
2018-12-09T15:53:18.836Z,138.10
2018-12-09T15:55:45.001Z,112.53
2018-12-09T15:58:11.144Z,109.10
2018-12-09T16:00:39.414Z,104.70
2018-12-09T16:03:05.941Z,92.20
2018-12-09T16:05:32.227Z,88.40
2018-12-09T16:07:58.430Z,72.93
2018-12-09T16:10:24.612Z,88.53
2018-12-09T16:12:50.761Z,74.33
2018-12-09T16:15:16.976Z,59.43
2018-12-09T16:17:43.142Z,63.23
2018-12-09T16:20:09.306Z,58.57
2018-12-09T16:22:35.486Z,60.40
2018-12-09T16:25:01.830Z,64.23
2018-12-09T16:27:28.477Z,82.97
2018-12-09T16:29:54.654Z,101.97
2018-12-09T16:32:20.829Z,120.17
2018-12-09T16:34:47.001Z,102.80
2018-12-09T16:37:13.174Z,88.90
2018-12-09T16:39:39.327Z,76.33
2018-12-09T16:42:05.461Z,71.83
2018-12-09T16:44:31.668Z,66.27
2018-12-09T16:46:57.829Z,55.73
2018-12-09T16:49:23.995Z,53.07
2018-12-09T16:51:50.169Z,67.60
2018-12-09T16:54:16.326Z,170.13
2018-12-09T16:56:42.469Z,62.07
2018-12-09T16:59:08.645Z,63.47
2018-12-09T17:01:34.806Z,66.40
2018-12-09T17:04:01.069Z,74.93
2018-12-09T17:06:27.257Z,451.00
2018-12-09T17:08:53.413Z,66.47
2018-12-09T17:11:19.548Z,64.60
2018-12-09T17:13:45.734Z,69.50
2018-12-09T17:16:18.109Z,113.63
2018-12-09T17:18:44.301Z,126.73
2018-12-09T17:21:11.538Z,64.70
2018-12-09T17:23:37.787Z,159.13
2018-12-09T17:26:04.039Z,74.30
2018-12-09T17:28:30.258Z,58.53
2018-12-09T17:30:56.413Z,66.83
2018-12-09T17:33:23.598Z,58.30
2018-12-09T17:35:50.005Z,74.87
2018-12-09T17:38:16.144Z,67.50
2018-12-09T17:40:42.294Z,59.20
2018-12-09T17:43:09.833Z,60.60
2018-12-09T17:45:35.989Z,57.77
2018-12-09T17:48:02.205Z,54.43
2018-12-09T17:50:28.629Z,55.97
2018-12-09T17:52:54.761Z,76.83
2018-12-09T17:55:20.908Z,93.93
2018-12-09T17:57:47.074Z,75.23
2018-12-09T18:00:13.217Z,76.07
2018-12-09T18:02:39.371Z,67.90
2018-12-09T18:05:05.641Z,71.47
2018-12-09T18:07:31.805Z,66.13
2018-12-09T18:09:57.947Z,67.67
2018-12-09T18:12:24.114Z,84.60
2018-12-09T18:14:50.276Z,94.77
2018-12-09T18:17:16.434Z,133.13
2018-12-09T18:19:46.897Z,175.70
2018-12-09T18:22:13.053Z,52.03
2018-12-09T18:24:39.230Z,56.97
2018-12-09T18:27:05.434Z,303.70
2018-12-09T18:29:31.624Z,63.80
2018-12-09T18:31:58.363Z,57.80
2018-12-09T18:34:24.569Z,61.03
2018-12-09T18:36:50.966Z,55.80
2018-12-09T18:39:17.469Z,52.77
2018-12-09T18:41:43.670Z,100.83
2018-12-09T18:44:09.867Z,80.10
2018-12-09T18:46:37.004Z,62.00
2018-12-09T18:49:03.206Z,87.70
2018-12-09T18:51:30.103Z,61.37
2018-12-09T18:53:56.258Z,144.97
2018-12-09T18:56:22.530Z,103.92
2018-12-09T18:58:48.723Z,59.33
2018-12-09T19:01:14.903Z,54.07
2018-12-09T19:03:41.109Z,53.00
2018-12-09T19:06:07.247Z,39.73
2018-12-09T19:08:33.420Z,45.17
2018-12-09T19:10:59.609Z,83.00
2018-12-09T19:13:25.750Z,45.57
2018-12-09T19:15:51.916Z,55.13
2018-12-09T19:18:18.084Z,34.23
2018-12-09T19:20:44.229Z,39.30
2018-12-09T19:23:10.362Z,38.43
2018-12-09T19:25:36.577Z,30.13
2018-12-09T19:28:02.777Z,29.13
2018-12-09T19:30:28.946Z,31.57
2018-12-09T19:32:55.109Z,43.53
2018-12-09T19:35:21.253Z,26.80
2018-12-09T19:37:47.411Z,26.57
2018-12-09T19:40:13.588Z,32.37
2018-12-09T19:42:39.730Z,29.00
2018-12-09T19:45:06.032Z,29.73
2018-12-09T19:47:32.246Z,33.47
2018-12-09T19:49:58.403Z,32.23
2018-12-09T19:52:24.605Z,46.20
2018-12-09T19:54:50.977Z,51.07
2018-12-09T19:57:17.164Z,49.97
2018-12-09T19:59:43.336Z,41.73
2018-12-09T20:02:09.582Z,28.13
2018-12-09T20:04:35.753Z,37.90
2018-12-09T20:07:02.002Z,50.70
2018-12-09T20:09:28.206Z,59.33
2018-12-09T20:11:54.385Z,52.23
2018-12-09T20:14:20.574Z,46.73
2018-12-09T20:16:46.745Z,41.77
2018-12-09T20:19:12.884Z,47.33
2018-12-09T20:21:39.082Z,47.80
2018-12-09T20:24:05.316Z,62.47
2018-12-09T20:26:31.530Z,65.17
2018-12-09T20:28:57.685Z,69.77
2018-12-09T20:31:23.862Z,75.47
2018-12-09T20:33:50.015Z,76.20
2018-12-09T20:36:16.162Z,82.07
2018-12-09T20:38:42.337Z,76.83
2018-12-09T20:41:08.480Z,91.10
2018-12-09T20:43:34.615Z,80.43
2018-12-09T20:46:00.802Z,107.07
2018-12-09T20:48:26.958Z,82.00
2018-12-09T20:50:53.132Z,70.03
2018-12-09T20:53:19.322Z,77.33
2018-12-09T20:55:45.578Z,71.73
2018-12-09T20:58:11.858Z,64.23
2018-12-09T21:05:51.794Z,79.93
2018-12-09T21:08:17.978Z,70.60
2018-12-09T21:10:44.167Z,80.80
2018-12-09T21:13:10.410Z,111.30
2018-12-09T21:15:36.739Z,115.90
2018-12-09T21:18:03.189Z,93.70
2018-12-09T21:20:29.565Z,87.20
2018-12-09T21:22:56.700Z,125.90
2018-12-09T21:25:26.915Z,119.80
2018-12-09T21:27:53.126Z,104.87
2018-12-09T21:30:19.678Z,126.77
2018-12-09T21:32:46.071Z,105.20
2018-12-09T21:35:12.274Z,102.43
2018-12-09T21:37:38.424Z,92.93
2018-12-09T21:40:05.765Z,99.40
2018-12-09T21:42:31.925Z,91.77
2018-12-09T21:44:58.082Z,96.57
2018-12-09T21:47:24.277Z,86.50
2018-12-09T21:49:50.425Z,106.50
2018-12-09T21:52:16.567Z,81.50
2018-12-09T21:54:42.708Z,81.83
2018-12-09T21:57:08.869Z,65.87
2018-12-09T21:59:35.018Z,346.47
2018-12-09T22:02:01.169Z,67.13
2018-12-09T22:04:27.367Z,59.23
2018-12-09T22:06:53.497Z,52.97
2018-12-09T22:09:19.653Z,55.43
2018-12-09T22:11:45.852Z,48.33
2018-12-09T22:14:12.009Z,47.50
2018-12-09T22:16:38.161Z,40.70
2018-12-09T22:19:04.361Z,38.43
2018-12-09T22:21:30.514Z,30.53
2018-12-09T22:23:56.672Z,27.73
2018-12-09T22:26:22.885Z,50.07
2018-12-09T22:28:49.033Z,48.83
2018-12-09T22:31:15.171Z,50.87
2018-12-09T22:33:41.344Z,43.17
2018-12-09T22:36:07.538Z,50.97
2018-12-09T22:38:33.680Z,41.40
2018-12-09T22:40:59.870Z,39.83
2018-12-09T22:43:26.013Z,46.17
2018-12-09T22:45:52.163Z,52.73
2018-12-09T22:48:18.342Z,50.43
2018-12-09T22:50:44.506Z,55.67
2018-12-09T22:53:10.661Z,62.13
2018-12-09T22:55:36.957Z,62.63
2018-12-09T22:58:03.100Z,63.93
2018-12-09T23:00:29.396Z,72.03
2018-12-09T23:03:01.658Z,64.80
2018-12-09T23:05:27.945Z,72.60
2018-12-09T23:07:54.099Z,71.77
2018-12-09T23:10:20.565Z,76.60
2018-12-09T23:12:46.705Z,76.60
2018-12-09T23:15:13.006Z,76.93
2018-12-09T23:17:39.201Z,66.23
2018-12-09T23:20:05.510Z,64.07
2018-12-09T23:22:31.667Z,69.87
2018-12-09T23:24:57.869Z,72.50
2018-12-09T23:27:24.031Z,68.33
2018-12-09T23:29:50.193Z,65.40
2018-12-09T23:32:16.375Z,64.90
2018-12-09T23:34:42.538Z,63.50
2018-12-09T23:37:08.696Z,56.77
2018-12-09T23:39:34.872Z,62.53
2018-12-09T23:42:01.024Z,54.17
2018-12-09T23:44:27.170Z,56.63
2018-12-09T23:46:53.348Z,53.27
2018-12-09T23:49:19.487Z,55.13
2018-12-09T23:51:45.637Z,54.43
2018-12-09T23:54:11.793Z,54.43
2018-12-09T23:56:37.949Z,53.20
2018-12-09T23:59:04.080Z,50.43
